sensor_id;sensor_type;location;lat;lon;timestamp;P1;durP1;ratioP1;P2;durP2;ratioP2
57073;SDS011;69035;54.392;18.574;2023-04-06T00:00:20;18.60;;;7.90;;
57073;SDS011;69035;54.392;18.574;2023-04-06T00:03:11;16.60;;;8.48;;
57073;SDS011;69035;54.392;18.574;2023-04-06T00:05:40;18.50;;;8.43;;
57073;SDS011;69035;54.392;18.574;2023-04-06T00:08:08;19.15;;;8.82;;
57073;SDS011;69035;54.392;18.574;2023-04-06T00:10:37;15.98;;;8.05;;
57073;SDS011;69035;54.392;18.574;2023-04-06T00:13:06;19.70;;;7.55;;
57073;SDS011;69035;54.392;18.574;2023-04-06T00:15:35;15.25;;;7.00;;
57073;SDS011;69035;54.392;18.574;2023-04-06T00:18:04;17.63;;;6.68;;
57073;SDS011;69035;54.392;18.574;2023-04-06T00:20:35;14.80;;;6.97;;
57073;SDS011;69035;54.392;18.574;2023-04-06T00:23:04;12.63;;;5.45;;
57073;SDS011;69035;54.392;18.574;2023-04-06T00:25:32;12.63;;;6.17;;
57073;SDS011;69035;54.392;18.574;2023-04-06T00:28:01;15.63;;;5.97;;
57073;SDS011;69035;54.392;18.574;2023-04-06T00:30:30;15.10;;;5.70;;
57073;SDS011;69035;54.392;18.574;2023-04-06T00:32:59;12.93;;;5.00;;
57073;SDS011;69035;54.392;18.574;2023-04-06T00:35:28;13.50;;;4.97;;
57073;SDS011;69035;54.392;18.574;2023-04-06T00:37:58;13.88;;;4.97;;
57073;SDS011;69035;54.392;18.574;2023-04-06T00:40:27;11.25;;;4.68;;
57073;SDS011;69035;54.392;18.574;2023-04-06T00:42:57;13.07;;;4.65;;
57073;SDS011;69035;54.392;18.574;2023-04-06T00:45:27;13.27;;;5.03;;
57073;SDS011;69035;54.392;18.574;2023-04-06T00:47:56;11.70;;;5.13;;
57073;SDS011;69035;54.392;18.574;2023-04-06T00:50:25;15.88;;;5.75;;
57073;SDS011;69035;54.392;18.574;2023-04-06T00:52:53;13.82;;;5.20;;
57073;SDS011;69035;54.392;18.574;2023-04-06T00:55:29;16.50;;;7.10;;
57073;SDS011;69035;54.392;18.574;2023-04-06T00:57:58;15.55;;;6.68;;
57073;SDS011;69035;54.392;18.574;2023-04-06T01:00:32;13.18;;;6.47;;
57073;SDS011;69035;54.392;18.574;2023-04-06T01:03:02;16.35;;;6.25;;
57073;SDS011;69035;54.392;18.574;2023-04-06T01:05:40;11.35;;;5.93;;
57073;SDS011;69035;54.392;18.574;2023-04-06T01:08:22;14.68;;;6.55;;
57073;SDS011;69035;54.392;18.574;2023-04-06T01:11:00;11.93;;;5.70;;
57073;SDS011;69035;54.392;18.574;2023-04-06T01:13:29;18.15;;;7.18;;
57073;SDS011;69035;54.392;18.574;2023-04-06T01:16:02;12.43;;;5.60;;
57073;SDS011;69035;54.392;18.574;2023-04-06T01:18:42;13.48;;;6.68;;
57073;SDS011;69035;54.392;18.574;2023-04-06T01:21:20;19.27;;;7.53;;
57073;SDS011;69035;54.392;18.574;2023-04-06T01:24:06;18.50;;;7.55;;
57073;SDS011;69035;54.392;18.574;2023-04-06T01:27:14;15.45;;;7.20;;
57073;SDS011;69035;54.392;18.574;2023-04-06T01:30:14;33.92;;;13.38;;
57073;SDS011;69035;54.392;18.574;2023-04-06T01:32:58;100.47;;;30.92;;
57073;SDS011;69035;54.392;18.574;2023-04-06T01:35:59;341.35;;;102.88;;
57073;SDS011;69035;54.392;18.574;2023-04-06T01:38:28;347.92;;;96.18;;
57073;SDS011;69035;54.392;18.574;2023-04-06T01:40:59;529.45;;;163.05;;
57073;SDS011;69035;54.392;18.574;2023-04-06T01:43:34;382.38;;;116.28;;
57073;SDS011;69035;54.392;18.574;2023-04-06T01:46:08;260.40;;;79.75;;
57073;SDS011;69035;54.392;18.574;2023-04-06T01:48:40;265.10;;;84.15;;
57073;SDS011;69035;54.392;18.574;2023-04-06T01:51:18;287.33;;;97.63;;
57073;SDS011;69035;54.392;18.574;2023-04-06T01:53:54;134.07;;;48.70;;
57073;SDS011;69035;54.392;18.574;2023-04-06T01:56:33;74.82;;;31.10;;
57073;SDS011;69035;54.392;18.574;2023-04-06T01:59:22;37.95;;;15.52;;
57073;SDS011;69035;54.392;18.574;2023-04-06T02:01:52;32.70;;;10.48;;
57073;SDS011;69035;54.392;18.574;2023-04-06T02:04:23;14.90;;;6.45;;
57073;SDS011;69035;54.392;18.574;2023-04-06T02:07:00;16.05;;;5.20;;
57073;SDS011;69035;54.392;18.574;2023-04-06T02:09:29;12.52;;;4.80;;
57073;SDS011;69035;54.392;18.574;2023-04-06T02:12:00;15.55;;;5.85;;
57073;SDS011;69035;54.392;18.574;2023-04-06T02:14:33;18.50;;;5.85;;
57073;SDS011;69035;54.392;18.574;2023-04-06T02:17:01;16.92;;;5.45;;
57073;SDS011;69035;54.392;18.574;2023-04-06T02:19:30;11.07;;;4.30;;
57073;SDS011;69035;54.392;18.574;2023-04-06T02:21:59;11.07;;;4.25;;
57073;SDS011;69035;54.392;18.574;2023-04-06T02:24:28;12.88;;;5.18;;
57073;SDS011;69035;54.392;18.574;2023-04-06T02:26:57;14.95;;;4.72;;
57073;SDS011;69035;54.392;18.574;2023-04-06T02:29:28;10.73;;;4.38;;
57073;SDS011;69035;54.392;18.574;2023-04-06T02:31:57;12.65;;;4.43;;
57073;SDS011;69035;54.392;18.574;2023-04-06T02:34:26;9.75;;;4.47;;
57073;SDS011;69035;54.392;18.574;2023-04-06T02:36:55;10.98;;;4.90;;
57073;SDS011;69035;54.392;18.574;2023-04-06T02:39:24;10.37;;;4.03;;
57073;SDS011;69035;54.392;18.574;2023-04-06T02:41:53;14.45;;;4.40;;
57073;SDS011;69035;54.392;18.574;2023-04-06T02:44:24;10.27;;;3.60;;
57073;SDS011;69035;54.392;18.574;2023-04-06T02:46:54;13.57;;;4.80;;
57073;SDS011;69035;54.392;18.574;2023-04-06T02:49:24;15.52;;;5.03;;
57073;SDS011;69035;54.392;18.574;2023-04-06T02:51:55;14.18;;;4.32;;
57073;SDS011;69035;54.392;18.574;2023-04-06T02:54:29;11.93;;;4.18;;
57073;SDS011;69035;54.392;18.574;2023-04-06T02:56:58;14.35;;;4.63;;
57073;SDS011;69035;54.392;18.574;2023-04-06T02:59:36;11.55;;;3.60;;
57073;SDS011;69035;54.392;18.574;2023-04-06T03:02:16;11.60;;;4.13;;
57073;SDS011;69035;54.392;18.574;2023-04-06T03:04:47;11.05;;;4.35;;
57073;SDS011;69035;54.392;18.574;2023-04-06T03:07:28;9.40;;;3.92;;
57073;SDS011;69035;54.392;18.574;2023-04-06T03:09:57;8.70;;;3.97;;
57073;SDS011;69035;54.392;18.574;2023-04-06T03:12:25;10.95;;;4.10;;
57073;SDS011;69035;54.392;18.574;2023-04-06T03:15:20;9.38;;;3.58;;
57073;SDS011;69035;54.392;18.574;2023-04-06T03:18:00;8.70;;;3.25;;
57073;SDS011;69035;54.392;18.574;2023-04-06T03:20:37;9.77;;;3.38;;
57073;SDS011;69035;54.392;18.574;2023-04-06T03:23:06;8.65;;;3.55;;
57073;SDS011;69035;54.392;18.574;2023-04-06T03:25:39;10.63;;;3.75;;
57073;SDS011;69035;54.392;18.574;2023-04-06T03:28:11;8.45;;;3.45;;
57073;SDS011;69035;54.392;18.574;2023-04-06T03:30:49;10.75;;;3.85;;
57073;SDS011;69035;54.392;18.574;2023-04-06T03:33:27;8.82;;;3.22;;
57073;SDS011;69035;54.392;18.574;2023-04-06T03:35:57;7.60;;;2.95;;
57073;SDS011;69035;54.392;18.574;2023-04-06T03:38:26;8.50;;;2.80;;
57073;SDS011;69035;54.392;18.574;2023-04-06T03:40:55;10.57;;;4.03;;
57073;SDS011;69035;54.392;18.574;2023-04-06T03:43:26;9.30;;;3.13;;
57073;SDS011;69035;54.392;18.574;2023-04-06T03:45:55;6.88;;;3.10;;
57073;SDS011;69035;54.392;18.574;2023-04-06T03:48:24;11.13;;;3.65;;
57073;SDS011;69035;54.392;18.574;2023-04-06T03:50:55;9.65;;;2.80;;
57073;SDS011;69035;54.392;18.574;2023-04-06T03:53:25;9.05;;;2.85;;
57073;SDS011;69035;54.392;18.574;2023-04-06T03:55:54;11.65;;;2.90;;
57073;SDS011;69035;54.392;18.574;2023-04-06T03:58:22;8.65;;;2.80;;
57073;SDS011;69035;54.392;18.574;2023-04-06T04:00:52;9.90;;;3.00;;
57073;SDS011;69035;54.392;18.574;2023-04-06T04:03:20;8.25;;;3.17;;
57073;SDS011;69035;54.392;18.574;2023-04-06T04:08:20;8.65;;;2.58;;
57073;SDS011;69035;54.392;18.574;2023-04-06T04:10:49;8.75;;;2.80;;
57073;SDS011;69035;54.392;18.574;2023-04-06T04:13:18;7.03;;;2.77;;
57073;SDS011;69035;54.392;18.574;2023-04-06T04:15:50;8.80;;;3.10;;
57073;SDS011;69035;54.392;18.574;2023-04-06T04:18:21;8.48;;;2.67;;
57073;SDS011;69035;54.392;18.574;2023-04-06T04:20:51;7.72;;;2.80;;
57073;SDS011;69035;54.392;18.574;2023-04-06T04:23:23;8.77;;;2.70;;
57073;SDS011;69035;54.392;18.574;2023-04-06T04:25:52;9.25;;;2.60;;
57073;SDS011;69035;54.392;18.574;2023-04-06T04:28:20;7.00;;;3.10;;
57073;SDS011;69035;54.392;18.574;2023-04-06T04:30:49;9.02;;;3.22;;
57073;SDS011;69035;54.392;18.574;2023-04-06T04:33:18;7.15;;;2.90;;
57073;SDS011;69035;54.392;18.574;2023-04-06T04:35:48;8.18;;;2.63;;
57073;SDS011;69035;54.392;18.574;2023-04-06T04:38:19;7.35;;;2.83;;
57073;SDS011;69035;54.392;18.574;2023-04-06T04:40:53;10.15;;;2.85;;
57073;SDS011;69035;54.392;18.574;2023-04-06T04:43:22;9.25;;;3.25;;
57073;SDS011;69035;54.392;18.574;2023-04-06T04:45:51;9.63;;;2.90;;
57073;SDS011;69035;54.392;18.574;2023-04-06T04:48:30;9.10;;;3.22;;
57073;SDS011;69035;54.392;18.574;2023-04-06T04:51:03;9.90;;;3.10;;
57073;SDS011;69035;54.392;18.574;2023-04-06T04:53:52;7.70;;;2.72;;
57073;SDS011;69035;54.392;18.574;2023-04-06T04:56:27;10.77;;;3.35;;
57073;SDS011;69035;54.392;18.574;2023-04-06T04:59:05;7.90;;;3.10;;
57073;SDS011;69035;54.392;18.574;2023-04-06T05:01:37;11.43;;;3.28;;
57073;SDS011;69035;54.392;18.574;2023-04-06T05:04:22;8.55;;;3.40;;
57073;SDS011;69035;54.392;18.574;2023-04-06T05:07:01;9.20;;;2.60;;
57073;SDS011;69035;54.392;18.574;2023-04-06T05:09:32;8.13;;;2.78;;
57073;SDS011;69035;54.392;18.574;2023-04-06T05:12:03;12.80;;;4.18;;
57073;SDS011;69035;54.392;18.574;2023-04-06T05:14:37;9.65;;;3.70;;
57073;SDS011;69035;54.392;18.574;2023-04-06T05:17:11;9.40;;;3.15;;
57073;SDS011;69035;54.392;18.574;2023-04-06T05:19:40;6.47;;;2.45;;
57073;SDS011;69035;54.392;18.574;2023-04-06T05:22:11;6.80;;;2.50;;
57073;SDS011;69035;54.392;18.574;2023-04-06T05:24:45;7.13;;;2.92;;
57073;SDS011;69035;54.392;18.574;2023-04-06T05:27:16;8.10;;;2.70;;
57073;SDS011;69035;54.392;18.574;2023-04-06T05:29:47;8.70;;;2.58;;
57073;SDS011;69035;54.392;18.574;2023-04-06T05:32:16;6.00;;;2.50;;
57073;SDS011;69035;54.392;18.574;2023-04-06T05:34:49;6.68;;;2.40;;
57073;SDS011;69035;54.392;18.574;2023-04-06T05:37:18;8.20;;;2.80;;
57073;SDS011;69035;54.392;18.574;2023-04-06T05:39:47;8.30;;;3.13;;
57073;SDS011;69035;54.392;18.574;2023-04-06T05:42:19;7.50;;;2.90;;
57073;SDS011;69035;54.392;18.574;2023-04-06T05:44:52;8.27;;;2.83;;
57073;SDS011;69035;54.392;18.574;2023-04-06T05:47:21;7.80;;;2.42;;
57073;SDS011;69035;54.392;18.574;2023-04-06T05:49:57;7.15;;;2.80;;
57073;SDS011;69035;54.392;18.574;2023-04-06T05:52:37;6.88;;;2.55;;
57073;SDS011;69035;54.392;18.574;2023-04-06T05:55:05;7.93;;;2.60;;
57073;SDS011;69035;54.392;18.574;2023-04-06T05:57:39;7.93;;;2.70;;
57073;SDS011;69035;54.392;18.574;2023-04-06T06:00:08;8.80;;;3.00;;
57073;SDS011;69035;54.392;18.574;2023-04-06T06:02:50;10.43;;;2.83;;
57073;SDS011;69035;54.392;18.574;2023-04-06T06:05:23;6.97;;;2.53;;
57073;SDS011;69035;54.392;18.574;2023-04-06T06:07:53;6.25;;;2.20;;
57073;SDS011;69035;54.392;18.574;2023-04-06T06:10:22;6.30;;;2.13;;
57073;SDS011;69035;54.392;18.574;2023-04-06T06:12:53;8.15;;;2.55;;
57073;SDS011;69035;54.392;18.574;2023-04-06T06:15:22;7.03;;;2.40;;
57073;SDS011;69035;54.392;18.574;2023-04-06T06:17:52;6.68;;;2.60;;
57073;SDS011;69035;54.392;18.574;2023-04-06T06:20:21;10.98;;;3.42;;
57073;SDS011;69035;54.392;18.574;2023-04-06T06:22:50;8.18;;;3.45;;
57073;SDS011;69035;54.392;18.574;2023-04-06T06:25:21;7.38;;;3.60;;
57073;SDS011;69035;54.392;18.574;2023-04-06T06:27:50;10.20;;;4.28;;
57073;SDS011;69035;54.392;18.574;2023-04-06T06:30:21;8.67;;;3.80;;
57073;SDS011;69035;54.392;18.574;2023-04-06T06:32:50;7.32;;;3.42;;
57073;SDS011;69035;54.392;18.574;2023-04-06T06:35:19;11.30;;;4.10;;
57073;SDS011;69035;54.392;18.574;2023-04-06T06:37:48;10.50;;;4.30;;
57073;SDS011;69035;54.392;18.574;2023-04-06T06:40:20;12.50;;;4.40;;
57073;SDS011;69035;54.392;18.574;2023-04-06T06:42:52;9.25;;;3.80;;
57073;SDS011;69035;54.392;18.574;2023-04-06T06:48:02;7.47;;;3.28;;
57073;SDS011;69035;54.392;18.574;2023-04-06T06:50:31;11.37;;;3.80;;
57073;SDS011;69035;54.392;18.574;2023-04-06T06:53:00;11.93;;;5.47;;
57073;SDS011;69035;54.392;18.574;2023-04-06T06:55:29;12.52;;;4.43;;
57073;SDS011;69035;54.392;18.574;2023-04-06T06:57:58;14.45;;;4.97;;
57073;SDS011;69035;54.392;18.574;2023-04-06T07:00:26;10.82;;;5.20;;
57073;SDS011;69035;54.392;18.574;2023-04-06T07:02:57;12.02;;;4.68;;
57073;SDS011;69035;54.392;18.574;2023-04-06T07:05:27;10.95;;;4.90;;
57073;SDS011;69035;54.392;18.574;2023-04-06T07:07:57;11.75;;;4.72;;
57073;SDS011;69035;54.392;18.574;2023-04-06T07:10:26;12.97;;;4.73;;
57073;SDS011;69035;54.392;18.574;2023-04-06T07:12:56;9.60;;;4.18;;
57073;SDS011;69035;54.392;18.574;2023-04-06T07:15:24;10.80;;;4.00;;
57073;SDS011;69035;54.392;18.574;2023-04-06T07:17:54;11.05;;;5.05;;
57073;SDS011;69035;54.392;18.574;2023-04-06T07:20:24;10.27;;;4.82;;
57073;SDS011;69035;54.392;18.574;2023-04-06T07:22:55;11.85;;;4.45;;
57073;SDS011;69035;54.392;18.574;2023-04-06T07:25:23;9.77;;;4.43;;
57073;SDS011;69035;54.392;18.574;2023-04-06T07:27:52;13.23;;;4.80;;
57073;SDS011;69035;54.392;18.574;2023-04-06T07:30:21;10.38;;;4.55;;
57073;SDS011;69035;54.392;18.574;2023-04-06T07:32:52;11.70;;;4.95;;
57073;SDS011;69035;54.392;18.574;2023-04-06T07:35:22;12.15;;;5.03;;
57073;SDS011;69035;54.392;18.574;2023-04-06T07:37:54;10.82;;;5.50;;
57073;SDS011;69035;54.392;18.574;2023-04-06T07:40:23;8.63;;;4.80;;
57073;SDS011;69035;54.392;18.574;2023-04-06T07:42:54;15.05;;;4.72;;
57073;SDS011;69035;54.392;18.574;2023-04-06T07:45:24;11.63;;;5.43;;
57073;SDS011;69035;54.392;18.574;2023-04-06T07:47:54;11.77;;;5.60;;
57073;SDS011;69035;54.392;18.574;2023-04-06T07:50:26;9.82;;;4.28;;
57073;SDS011;69035;54.392;18.574;2023-04-06T07:52:56;10.15;;;4.40;;
57073;SDS011;69035;54.392;18.574;2023-04-06T07:55:25;13.30;;;5.13;;
57073;SDS011;69035;54.392;18.574;2023-04-06T07:57:54;15.53;;;5.27;;
57073;SDS011;69035;54.392;18.574;2023-04-06T08:00:22;11.10;;;5.60;;
57073;SDS011;69035;54.392;18.574;2023-04-06T08:02:51;12.70;;;4.45;;
57073;SDS011;69035;54.392;18.574;2023-04-06T08:05:20;10.70;;;4.03;;
57073;SDS011;69035;54.392;18.574;2023-04-06T08:07:51;10.10;;;4.50;;
57073;SDS011;69035;54.392;18.574;2023-04-06T08:10:19;9.73;;;3.90;;
57073;SDS011;69035;54.392;18.574;2023-04-06T08:12:48;12.60;;;4.40;;
57073;SDS011;69035;54.392;18.574;2023-04-06T08:15:17;8.07;;;3.88;;
57073;SDS011;69035;54.392;18.574;2023-04-06T08:17:46;11.15;;;3.97;;
57073;SDS011;69035;54.392;18.574;2023-04-06T08:20:15;9.48;;;3.55;;
57073;SDS011;69035;54.392;18.574;2023-04-06T08:22:44;9.00;;;3.63;;
57073;SDS011;69035;54.392;18.574;2023-04-06T08:25:14;7.68;;;3.00;;
57073;SDS011;69035;54.392;18.574;2023-04-06T08:27:43;7.25;;;3.20;;
57073;SDS011;69035;54.392;18.574;2023-04-06T08:30:12;6.38;;;2.78;;
57073;SDS011;69035;54.392;18.574;2023-04-06T08:32:42;7.60;;;3.58;;
57073;SDS011;69035;54.392;18.574;2023-04-06T08:35:10;6.63;;;2.88;;
57073;SDS011;69035;54.392;18.574;2023-04-06T08:37:39;6.32;;;2.67;;
57073;SDS011;69035;54.392;18.574;2023-04-06T08:40:08;8.98;;;2.88;;
57073;SDS011;69035;54.392;18.574;2023-04-06T08:42:40;6.95;;;2.70;;
57073;SDS011;69035;54.392;18.574;2023-04-06T08:45:12;7.50;;;2.47;;
57073;SDS011;69035;54.392;18.574;2023-04-06T08:47:43;6.95;;;2.60;;
57073;SDS011;69035;54.392;18.574;2023-04-06T08:50:12;8.50;;;2.90;;
57073;SDS011;69035;54.392;18.574;2023-04-06T08:52:41;6.80;;;2.70;;
57073;SDS011;69035;54.392;18.574;2023-04-06T08:55:12;6.75;;;2.60;;
57073;SDS011;69035;54.392;18.574;2023-04-06T08:57:43;6.93;;;2.80;;
57073;SDS011;69035;54.392;18.574;2023-04-06T09:00:13;7.38;;;3.10;;
57073;SDS011;69035;54.392;18.574;2023-04-06T09:02:45;8.25;;;3.08;;
57073;SDS011;69035;54.392;18.574;2023-04-06T09:05:14;7.47;;;3.13;;
57073;SDS011;69035;54.392;18.574;2023-04-06T09:10:13;6.00;;;2.55;;
57073;SDS011;69035;54.392;18.574;2023-04-06T09:12:44;6.47;;;2.50;;
57073;SDS011;69035;54.392;18.574;2023-04-06T09:15:17;6.80;;;2.40;;
57073;SDS011;69035;54.392;18.574;2023-04-06T09:17:50;4.85;;;1.90;;
57073;SDS011;69035;54.392;18.574;2023-04-06T09:20:22;7.97;;;2.53;;
57073;SDS011;69035;54.392;18.574;2023-04-06T09:22:54;7.90;;;2.72;;
57073;SDS011;69035;54.392;18.574;2023-04-06T09:25:24;7.57;;;2.92;;
57073;SDS011;69035;54.392;18.574;2023-04-06T09:28:01;5.63;;;2.38;;
57073;SDS011;69035;54.392;18.574;2023-04-06T09:30:33;6.63;;;2.33;;
57073;SDS011;69035;54.392;18.574;2023-04-06T09:33:03;8.25;;;2.38;;
57073;SDS011;69035;54.392;18.574;2023-04-06T09:35:32;6.20;;;2.22;;
57073;SDS011;69035;54.392;18.574;2023-04-06T09:38:09;5.20;;;1.92;;
57073;SDS011;69035;54.392;18.574;2023-04-06T09:40:47;6.35;;;2.10;;
57073;SDS011;69035;54.392;18.574;2023-04-06T09:43:29;4.95;;;1.80;;
57073;SDS011;69035;54.392;18.574;2023-04-06T09:45:58;6.32;;;1.80;;
57073;SDS011;69035;54.392;18.574;2023-04-06T09:48:31;5.00;;;1.50;;
57073;SDS011;69035;54.392;18.574;2023-04-06T09:51:03;5.68;;;1.80;;
57073;SDS011;69035;54.392;18.574;2023-04-06T09:53:34;5.30;;;1.63;;
57073;SDS011;69035;54.392;18.574;2023-04-06T09:56:07;5.40;;;1.65;;
57073;SDS011;69035;54.392;18.574;2023-04-06T09:58:42;6.40;;;1.83;;
57073;SDS011;69035;54.392;18.574;2023-04-06T10:01:15;3.95;;;1.40;;
57073;SDS011;69035;54.392;18.574;2023-04-06T10:03:49;4.53;;;1.90;;
57073;SDS011;69035;54.392;18.574;2023-04-06T10:06:24;4.57;;;1.40;;
57073;SDS011;69035;54.392;18.574;2023-04-06T10:08:57;6.32;;;1.65;;
57073;SDS011;69035;54.392;18.574;2023-04-06T10:11:26;4.90;;;1.40;;
57073;SDS011;69035;54.392;18.574;2023-04-06T10:13:57;5.53;;;1.75;;
57073;SDS011;69035;54.392;18.574;2023-04-06T10:16:26;4.53;;;1.45;;
57073;SDS011;69035;54.392;18.574;2023-04-06T10:18:57;3.75;;;1.48;;
57073;SDS011;69035;54.392;18.574;2023-04-06T10:21:30;3.45;;;1.27;;
57073;SDS011;69035;54.392;18.574;2023-04-06T10:24:06;7.13;;;1.40;;
57073;SDS011;69035;54.392;18.574;2023-04-06T10:26:37;4.20;;;1.45;;
57073;SDS011;69035;54.392;18.574;2023-04-06T10:29:07;4.73;;;1.30;;
57073;SDS011;69035;54.392;18.574;2023-04-06T10:34:08;6.18;;;1.40;;
57073;SDS011;69035;54.392;18.574;2023-04-06T10:36:36;4.82;;;1.20;;
57073;SDS011;69035;54.392;18.574;2023-04-06T10:39:06;3.35;;;1.00;;
57073;SDS011;69035;54.392;18.574;2023-04-06T10:41:36;3.08;;;1.00;;
57073;SDS011;69035;54.392;18.574;2023-04-06T10:44:18;5.70;;;1.52;;
57073;SDS011;69035;54.392;18.574;2023-04-06T10:46:55;3.22;;;1.27;;
57073;SDS011;69035;54.392;18.574;2023-04-06T10:49:27;3.83;;;1.23;;
57073;SDS011;69035;54.392;18.574;2023-04-06T10:51:55;4.05;;;1.60;;
57073;SDS011;69035;54.392;18.574;2023-04-06T10:54:25;6.07;;;1.38;;
57073;SDS011;69035;54.392;18.574;2023-04-06T10:56:55;3.95;;;1.30;;
57073;SDS011;69035;54.392;18.574;2023-04-06T10:59:28;6.05;;;1.55;;
57073;SDS011;69035;54.392;18.574;2023-04-06T11:01:56;3.53;;;1.50;;
57073;SDS011;69035;54.392;18.574;2023-04-06T11:04:26;4.57;;;1.60;;
57073;SDS011;69035;54.392;18.574;2023-04-06T11:06:54;5.57;;;1.38;;
57073;SDS011;69035;54.392;18.574;2023-04-06T11:09:24;5.50;;;1.88;;
57073;SDS011;69035;54.392;18.574;2023-04-06T11:11:54;7.43;;;1.75;;
57073;SDS011;69035;54.392;18.574;2023-04-06T11:14:23;4.55;;;1.77;;
57073;SDS011;69035;54.392;18.574;2023-04-06T11:16:54;3.95;;;1.40;;
57073;SDS011;69035;54.392;18.574;2023-04-06T11:19:24;4.28;;;1.50;;
57073;SDS011;69035;54.392;18.574;2023-04-06T11:21:53;7.50;;;1.42;;
57073;SDS011;69035;54.392;18.574;2023-04-06T11:24:25;5.18;;;1.40;;
57073;SDS011;69035;54.392;18.574;2023-04-06T11:26:54;4.72;;;1.65;;
57073;SDS011;69035;54.392;18.574;2023-04-06T11:29:25;3.03;;;1.10;;
57073;SDS011;69035;54.392;18.574;2023-04-06T11:31:59;3.70;;;1.38;;
57073;SDS011;69035;54.392;18.574;2023-04-06T11:34:30;4.53;;;1.60;;
57073;SDS011;69035;54.392;18.574;2023-04-06T11:37:02;4.53;;;1.10;;
57073;SDS011;69035;54.392;18.574;2023-04-06T11:39:37;5.25;;;1.52;;
57073;SDS011;69035;54.392;18.574;2023-04-06T11:42:07;6.57;;;1.50;;
57073;SDS011;69035;54.392;18.574;2023-04-06T11:44:36;7.47;;;2.08;;
57073;SDS011;69035;54.392;18.574;2023-04-06T11:47:09;4.90;;;1.65;;
57073;SDS011;69035;54.392;18.574;2023-04-06T11:49:39;4.28;;;1.60;;
57073;SDS011;69035;54.392;18.574;2023-04-06T11:54:45;6.10;;;1.92;;
57073;SDS011;69035;54.392;18.574;2023-04-06T11:57:15;4.97;;;1.80;;
57073;SDS011;69035;54.392;18.574;2023-04-06T11:59:45;4.88;;;2.05;;
57073;SDS011;69035;54.392;18.574;2023-04-06T12:02:15;5.13;;;1.42;;
57073;SDS011;69035;54.392;18.574;2023-04-06T12:04:45;8.30;;;2.00;;
57073;SDS011;69035;54.392;18.574;2023-04-06T12:07:14;5.00;;;1.83;;
57073;SDS011;69035;54.392;18.574;2023-04-06T12:09:43;4.35;;;1.52;;
57073;SDS011;69035;54.392;18.574;2023-04-06T12:12:11;4.90;;;1.60;;
57073;SDS011;69035;54.392;18.574;2023-04-06T12:14:40;5.68;;;1.77;;
57073;SDS011;69035;54.392;18.574;2023-04-06T12:17:09;4.28;;;1.58;;
57073;SDS011;69035;54.392;18.574;2023-04-06T12:19:40;5.63;;;1.65;;
57073;SDS011;69035;54.392;18.574;2023-04-06T12:22:08;5.50;;;1.63;;
57073;SDS011;69035;54.392;18.574;2023-04-06T12:24:38;5.47;;;1.40;;
57073;SDS011;69035;54.392;18.574;2023-04-06T12:27:07;5.28;;;1.60;;
57073;SDS011;69035;54.392;18.574;2023-04-06T12:29:38;5.40;;;1.35;;
57073;SDS011;69035;54.392;18.574;2023-04-06T12:32:07;4.78;;;1.13;;
57073;SDS011;69035;54.392;18.574;2023-04-06T12:34:36;3.05;;;1.40;;
57073;SDS011;69035;54.392;18.574;2023-04-06T12:37:07;4.40;;;1.10;;
57073;SDS011;69035;54.392;18.574;2023-04-06T12:39:36;4.90;;;1.23;;
57073;SDS011;69035;54.392;18.574;2023-04-06T12:42:05;2.90;;;1.20;;
57073;SDS011;69035;54.392;18.574;2023-04-06T12:47:03;4.00;;;0.93;;
57073;SDS011;69035;54.392;18.574;2023-04-06T12:49:34;4.82;;;1.33;;
57073;SDS011;69035;54.392;18.574;2023-04-06T12:52:03;4.32;;;1.10;;
57073;SDS011;69035;54.392;18.574;2023-04-06T12:54:34;2.95;;;0.85;;
57073;SDS011;69035;54.392;18.574;2023-04-06T12:57:03;3.80;;;1.20;;
57073;SDS011;69035;54.392;18.574;2023-04-06T12:59:32;4.43;;;1.08;;
57073;SDS011;69035;54.392;18.574;2023-04-06T13:02:03;2.70;;;1.05;;
57073;SDS011;69035;54.392;18.574;2023-04-06T13:07:00;3.50;;;1.20;;
57073;SDS011;69035;54.392;18.574;2023-04-06T13:09:29;3.85;;;0.98;;
57073;SDS011;69035;54.392;18.574;2023-04-06T13:11:59;4.32;;;1.00;;
57073;SDS011;69035;54.392;18.574;2023-04-06T13:14:28;3.45;;;0.90;;
57073;SDS011;69035;54.392;18.574;2023-04-06T13:16:58;2.08;;;1.00;;
57073;SDS011;69035;54.392;18.574;2023-04-06T13:19:27;2.90;;;1.15;;
57073;SDS011;69035;54.392;18.574;2023-04-06T13:21:55;3.22;;;1.00;;
57073;SDS011;69035;54.392;18.574;2023-04-06T13:24:25;4.95;;;1.08;;
57073;SDS011;69035;54.392;18.574;2023-04-06T13:26:53;4.63;;;1.30;;
57073;SDS011;69035;54.392;18.574;2023-04-06T13:29:24;2.28;;;0.88;;
57073;SDS011;69035;54.392;18.574;2023-04-06T13:31:52;5.30;;;1.05;;
57073;SDS011;69035;54.392;18.574;2023-04-06T13:34:21;2.92;;;1.13;;
57073;SDS011;69035;54.392;18.574;2023-04-06T13:36:50;5.97;;;1.52;;
57073;SDS011;69035;54.392;18.574;2023-04-06T13:39:19;2.13;;;0.93;;
57073;SDS011;69035;54.392;18.574;2023-04-06T13:41:47;5.78;;;1.20;;
57073;SDS011;69035;54.392;18.574;2023-04-06T13:44:16;2.85;;;1.08;;
57073;SDS011;69035;54.392;18.574;2023-04-06T13:46:46;4.13;;;1.30;;
57073;SDS011;69035;54.392;18.574;2023-04-06T13:49:15;2.80;;;1.00;;
57073;SDS011;69035;54.392;18.574;2023-04-06T13:51:43;2.83;;;0.90;;
57073;SDS011;69035;54.392;18.574;2023-04-06T13:54:12;3.40;;;1.13;;
57073;SDS011;69035;54.392;18.574;2023-04-06T13:56:41;2.92;;;1.20;;
57073;SDS011;69035;54.392;18.574;2023-04-06T13:59:10;3.17;;;1.10;;
57073;SDS011;69035;54.392;18.574;2023-04-06T14:01:38;4.85;;;1.02;;
57073;SDS011;69035;54.392;18.574;2023-04-06T14:04:09;4.13;;;1.00;;
57073;SDS011;69035;54.392;18.574;2023-04-06T14:06:37;2.72;;;0.90;;
57073;SDS011;69035;54.392;18.574;2023-04-06T14:09:07;3.97;;;1.15;;
57073;SDS011;69035;54.392;18.574;2023-04-06T14:11:35;3.80;;;1.10;;
57073;SDS011;69035;54.392;18.574;2023-04-06T14:14:05;3.75;;;1.10;;
57073;SDS011;69035;54.392;18.574;2023-04-06T14:16:33;4.32;;;1.25;;
57073;SDS011;69035;54.392;18.574;2023-04-06T14:19:03;3.72;;;1.00;;
57073;SDS011;69035;54.392;18.574;2023-04-06T14:21:33;4.30;;;1.10;;
57073;SDS011;69035;54.392;18.574;2023-04-06T14:24:02;3.63;;;1.08;;
57073;SDS011;69035;54.392;18.574;2023-04-06T14:26:31;3.58;;;1.00;;
57073;SDS011;69035;54.392;18.574;2023-04-06T14:29:00;5.93;;;1.40;;
57073;SDS011;69035;54.392;18.574;2023-04-06T14:31:29;3.40;;;1.40;;
57073;SDS011;69035;54.392;18.574;2023-04-06T14:34:00;3.05;;;1.40;;
57073;SDS011;69035;54.392;18.574;2023-04-06T14:36:30;3.55;;;1.30;;
57073;SDS011;69035;54.392;18.574;2023-04-06T14:39:05;3.63;;;1.33;;
57073;SDS011;69035;54.392;18.574;2023-04-06T14:41:34;3.00;;;1.30;;
57073;SDS011;69035;54.392;18.574;2023-04-06T14:44:03;3.00;;;1.00;;
57073;SDS011;69035;54.392;18.574;2023-04-06T14:46:32;3.75;;;1.48;;
57073;SDS011;69035;54.392;18.574;2023-04-06T14:49:01;5.68;;;1.88;;
57073;SDS011;69035;54.392;18.574;2023-04-06T14:51:30;5.10;;;1.52;;
57073;SDS011;69035;54.392;18.574;2023-04-06T14:53:59;5.22;;;1.83;;
57073;SDS011;69035;54.392;18.574;2023-04-06T14:56:31;3.47;;;1.30;;
57073;SDS011;69035;54.392;18.574;2023-04-06T14:59:00;7.10;;;1.90;;
57073;SDS011;69035;54.392;18.574;2023-04-06T15:01:28;3.53;;;1.33;;
57073;SDS011;69035;54.392;18.574;2023-04-06T15:03:58;4.82;;;1.83;;
57073;SDS011;69035;54.392;18.574;2023-04-06T15:06:27;3.92;;;1.40;;
57073;SDS011;69035;54.392;18.574;2023-04-06T15:08:56;3.90;;;1.30;;